sensor_id;sensor_type;location;lat;lon;timestamp;P1;durP1;ratioP1;P2;durP2;ratioP2
52106;SDS011;38105;52.968;5.974;2023-05-24T00:02:08;29.42;;;6.22;;
52106;SDS011;38105;52.968;5.974;2023-05-24T00:04:37;26.80;;;6.93;;
52106;SDS011;38105;52.968;5.974;2023-05-24T00:07:04;30.83;;;6.13;;
52106;SDS011;38105;52.968;5.974;2023-05-24T00:09:31;33.47;;;7.40;;
52106;SDS011;38105;52.968;5.974;2023-05-24T00:11:56;24.00;;;5.28;;
52106;SDS011;38105;52.968;5.974;2023-05-24T00:14:22;26.92;;;5.70;;
52106;SDS011;38105;52.968;5.974;2023-05-24T00:16:48;27.67;;;5.82;;
52106;SDS011;38105;52.968;5.974;2023-05-24T00:19:14;30.88;;;5.75;;
52106;SDS011;38105;52.968;5.974;2023-05-24T00:21:45;31.85;;;6.28;;
52106;SDS011;38105;52.968;5.974;2023-05-24T00:24:11;27.52;;;6.18;;
52106;SDS011;38105;52.968;5.974;2023-05-24T00:26:38;25.98;;;5.43;;
52106;SDS011;38105;52.968;5.974;2023-05-24T00:29:03;28.20;;;6.00;;
52106;SDS011;38105;52.968;5.974;2023-05-24T00:31:29;22.88;;;5.05;;
52106;SDS011;38105;52.968;5.974;2023-05-24T00:33:55;27.45;;;5.60;;
52106;SDS011;38105;52.968;5.974;2023-05-24T00:36:21;27.52;;;5.55;;
52106;SDS011;38105;52.968;5.974;2023-05-24T00:38:47;32.67;;;6.70;;
52106;SDS011;38105;52.968;5.974;2023-05-24T00:41:12;26.80;;;6.47;;
52106;SDS011;38105;52.968;5.974;2023-05-24T00:43:38;32.75;;;6.28;;
52106;SDS011;38105;52.968;5.974;2023-05-24T00:48:42;33.00;;;6.85;;
52106;SDS011;38105;52.968;5.974;2023-05-24T00:51:09;40.08;;;7.38;;
52106;SDS011;38105;52.968;5.974;2023-05-24T00:53:36;37.08;;;7.05;;
52106;SDS011;38105;52.968;5.974;2023-05-24T00:56:03;26.08;;;5.38;;
52106;SDS011;38105;52.968;5.974;2023-05-24T00:58:30;30.02;;;6.25;;
52106;SDS011;38105;52.968;5.974;2023-05-24T01:01:00;36.90;;;6.32;;
52106;SDS011;38105;52.968;5.974;2023-05-24T01:03:27;32.13;;;6.43;;
52106;SDS011;38105;52.968;5.974;2023-05-24T01:06:00;28.17;;;7.10;;
52106;SDS011;38105;52.968;5.974;2023-05-24T01:11:25;30.50;;;6.43;;
52106;SDS011;38105;52.968;5.974;2023-05-24T01:16:55;27.17;;;5.30;;
52106;SDS011;38105;52.968;5.974;2023-05-24T01:19:47;30.92;;;6.03;;
52106;SDS011;38105;52.968;5.974;2023-05-24T01:27:53;28.77;;;6.10;;
52106;SDS011;38105;52.968;5.974;2023-05-24T01:30:20;31.52;;;5.68;;
52106;SDS011;38105;52.968;5.974;2023-05-24T01:32:46;30.42;;;7.35;;
52106;SDS011;38105;52.968;5.974;2023-05-24T01:35:11;37.28;;;7.53;;
52106;SDS011;38105;52.968;5.974;2023-05-24T01:37:37;26.35;;;6.75;;
52106;SDS011;38105;52.968;5.974;2023-05-24T01:40:03;32.72;;;6.55;;
52106;SDS011;38105;52.968;5.974;2023-05-24T01:45:18;32.55;;;6.13;;
52106;SDS011;38105;52.968;5.974;2023-05-24T01:51:15;22.63;;;5.95;;
52106;SDS011;38105;52.968;5.974;2023-05-24T01:53:45;28.80;;;5.78;;
52106;SDS011;38105;52.968;5.974;2023-05-24T01:56:12;28.63;;;5.95;;
52106;SDS011;38105;52.968;5.974;2023-05-24T01:58:41;26.05;;;5.22;;
52106;SDS011;38105;52.968;5.974;2023-05-24T02:01:08;23.88;;;6.03;;
52106;SDS011;38105;52.968;5.974;2023-05-24T02:03:35;32.33;;;6.05;;
52106;SDS011;38105;52.968;5.974;2023-05-24T02:06:02;29.33;;;5.47;;
52106;SDS011;38105;52.968;5.974;2023-05-24T02:08:28;20.95;;;4.88;;
52106;SDS011;38105;52.968;5.974;2023-05-24T02:10:53;28.27;;;5.82;;
52106;SDS011;38105;52.968;5.974;2023-05-24T02:13:19;29.50;;;6.35;;
52106;SDS011;38105;52.968;5.974;2023-05-24T02:15:45;28.65;;;5.93;;
52106;SDS011;38105;52.968;5.974;2023-05-24T02:18:11;28.75;;;5.70;;
52106;SDS011;38105;52.968;5.974;2023-05-24T02:20:38;26.73;;;5.82;;
52106;SDS011;38105;52.968;5.974;2023-05-24T02:23:04;36.58;;;6.25;;
52106;SDS011;38105;52.968;5.974;2023-05-24T02:25:31;30.17;;;5.82;;
52106;SDS011;38105;52.968;5.974;2023-05-24T02:27:57;31.45;;;5.53;;
52106;SDS011;38105;52.968;5.974;2023-05-24T02:30:23;26.77;;;5.25;;
52106;SDS011;38105;52.968;5.974;2023-05-24T02:32:49;24.17;;;5.25;;
52106;SDS011;38105;52.968;5.974;2023-05-24T02:35:15;32.00;;;6.07;;
52106;SDS011;38105;52.968;5.974;2023-05-24T02:37:40;25.77;;;5.57;;
52106;SDS011;38105;52.968;5.974;2023-05-24T02:40:06;26.70;;;4.97;;
52106;SDS011;38105;52.968;5.974;2023-05-24T02:42:32;34.40;;;5.57;;
52106;SDS011;38105;52.968;5.974;2023-05-24T02:44:58;22.45;;;4.53;;
52106;SDS011;38105;52.968;5.974;2023-05-24T02:47:24;31.27;;;4.70;;
52106;SDS011;38105;52.968;5.974;2023-05-24T02:49:53;17.70;;;4.07;;
52106;SDS011;38105;52.968;5.974;2023-05-24T02:52:19;31.50;;;5.60;;
52106;SDS011;38105;52.968;5.974;2023-05-24T02:54:48;29.70;;;5.25;;
52106;SDS011;38105;52.968;5.974;2023-05-24T02:57:14;25.80;;;4.88;;
52106;SDS011;38105;52.968;5.974;2023-05-24T02:59:40;20.73;;;4.80;;
52106;SDS011;38105;52.968;5.974;2023-05-24T03:02:06;28.77;;;5.30;;
52106;SDS011;38105;52.968;5.974;2023-05-24T03:04:32;23.48;;;4.75;;
52106;SDS011;38105;52.968;5.974;2023-05-24T03:06:58;22.77;;;5.53;;
52106;SDS011;38105;52.968;5.974;2023-05-24T03:09:23;22.83;;;4.50;;
52106;SDS011;38105;52.968;5.974;2023-05-24T03:11:49;23.90;;;5.28;;
52106;SDS011;38105;52.968;5.974;2023-05-24T03:14:16;26.20;;;5.57;;
52106;SDS011;38105;52.968;5.974;2023-05-24T03:16:44;30.25;;;4.85;;
52106;SDS011;38105;52.968;5.974;2023-05-24T03:19:10;25.88;;;5.22;;
52106;SDS011;38105;52.968;5.974;2023-05-24T03:21:35;23.48;;;5.28;;
52106;SDS011;38105;52.968;5.974;2023-05-24T03:24:01;19.95;;;4.18;;
52106;SDS011;38105;52.968;5.974;2023-05-24T03:26:27;24.15;;;4.78;;
52106;SDS011;38105;52.968;5.974;2023-05-24T03:28:52;22.92;;;4.85;;
52106;SDS011;38105;52.968;5.974;2023-05-24T03:31:18;24.80;;;4.93;;
52106;SDS011;38105;52.968;5.974;2023-05-24T03:33:50;30.33;;;5.25;;
52106;SDS011;38105;52.968;5.974;2023-05-24T03:36:16;25.95;;;4.93;;
52106;SDS011;38105;52.968;5.974;2023-05-24T03:38:42;25.90;;;5.43;;
52106;SDS011;38105;52.968;5.974;2023-05-24T03:41:07;24.40;;;5.38;;
52106;SDS011;38105;52.968;5.974;2023-05-24T03:43:33;28.00;;;5.30;;
52106;SDS011;38105;52.968;5.974;2023-05-24T03:45:58;22.20;;;5.07;;
52106;SDS011;38105;52.968;5.974;2023-05-24T03:48:24;22.70;;;4.60;;
52106;SDS011;38105;52.968;5.974;2023-05-24T03:50:50;27.98;;;5.10;;
52106;SDS011;38105;52.968;5.974;2023-05-24T03:53:15;26.25;;;4.80;;
52106;SDS011;38105;52.968;5.974;2023-05-24T03:55:41;25.75;;;4.85;;
52106;SDS011;38105;52.968;5.974;2023-05-24T03:58:07;27.33;;;5.22;;
52106;SDS011;38105;52.968;5.974;2023-05-24T04:00:32;25.17;;;5.57;;
52106;SDS011;38105;52.968;5.974;2023-05-24T04:02:58;17.42;;;4.22;;
52106;SDS011;38105;52.968;5.974;2023-05-24T04:05:25;20.10;;;4.90;;
52106;SDS011;38105;52.968;5.974;2023-05-24T04:07:53;25.92;;;4.75;;
52106;SDS011;38105;52.968;5.974;2023-05-24T04:10:19;27.88;;;5.50;;
52106;SDS011;38105;52.968;5.974;2023-05-24T04:12:45;25.17;;;5.15;;
52106;SDS011;38105;52.968;5.974;2023-05-24T04:15:11;24.05;;;4.80;;
52106;SDS011;38105;52.968;5.974;2023-05-24T04:17:40;25.58;;;5.70;;
52106;SDS011;38105;52.968;5.974;2023-05-24T04:20:10;32.83;;;5.32;;
52106;SDS011;38105;52.968;5.974;2023-05-24T04:22:36;20.23;;;4.63;;
52106;SDS011;38105;52.968;5.974;2023-05-24T04:25:03;25.13;;;5.72;;
52106;SDS011;38105;52.968;5.974;2023-05-24T04:27:29;20.15;;;4.30;;
52106;SDS011;38105;52.968;5.974;2023-05-24T04:29:55;19.08;;;4.38;;
52106;SDS011;38105;52.968;5.974;2023-05-24T04:32:21;23.33;;;4.78;;
52106;SDS011;38105;52.968;5.974;2023-05-24T04:34:47;21.00;;;5.43;;
52106;SDS011;38105;52.968;5.974;2023-05-24T04:37:14;24.80;;;5.38;;
52106;SDS011;38105;52.968;5.974;2023-05-24T04:39:41;21.27;;;4.40;;
52106;SDS011;38105;52.968;5.974;2023-05-24T04:42:08;20.15;;;4.18;;
52106;SDS011;38105;52.968;5.974;2023-05-24T04:44:34;16.70;;;3.85;;
52106;SDS011;38105;52.968;5.974;2023-05-24T04:46:59;26.95;;;5.13;;
52106;SDS011;38105;52.968;5.974;2023-05-24T04:49:27;27.58;;;5.05;;
52106;SDS011;38105;52.968;5.974;2023-05-24T04:51:53;21.70;;;4.57;;
52106;SDS011;38105;52.968;5.974;2023-05-24T04:54:19;22.85;;;4.45;;
52106;SDS011;38105;52.968;5.974;2023-05-24T04:56:45;21.00;;;4.43;;
52106;SDS011;38105;52.968;5.974;2023-05-24T04:59:11;27.50;;;6.68;;
52106;SDS011;38105;52.968;5.974;2023-05-24T05:01:36;23.55;;;4.78;;
52106;SDS011;38105;52.968;5.974;2023-05-24T05:04:03;20.50;;;4.97;;
52106;SDS011;38105;52.968;5.974;2023-05-24T05:06:29;23.83;;;4.15;;
52106;SDS011;38105;52.968;5.974;2023-05-24T05:08:55;19.75;;;4.25;;
52106;SDS011;38105;52.968;5.974;2023-05-24T05:11:21;16.17;;;3.80;;
52106;SDS011;38105;52.968;5.974;2023-05-24T05:13:47;24.92;;;4.63;;
52106;SDS011;38105;52.968;5.974;2023-05-24T05:16:13;20.55;;;4.90;;
52106;SDS011;38105;52.968;5.974;2023-05-24T05:18:39;19.77;;;4.10;;
52106;SDS011;38105;52.968;5.974;2023-05-24T05:21:05;18.42;;;3.83;;
52106;SDS011;38105;52.968;5.974;2023-05-24T05:23:31;24.30;;;5.70;;
52106;SDS011;38105;52.968;5.974;2023-05-24T05:25:56;20.52;;;4.90;;
52106;SDS011;38105;52.968;5.974;2023-05-24T05:28:22;22.30;;;4.95;;
52106;SDS011;38105;52.968;5.974;2023-05-24T05:30:48;17.00;;;4.68;;
52106;SDS011;38105;52.968;5.974;2023-05-24T05:33:13;22.90;;;4.47;;
52106;SDS011;38105;52.968;5.974;2023-05-24T05:35:39;21.67;;;4.47;;
52106;SDS011;38105;52.968;5.974;2023-05-24T05:38:05;23.13;;;4.35;;
52106;SDS011;38105;52.968;5.974;2023-05-24T05:40:31;19.00;;;4.53;;
52106;SDS011;38105;52.968;5.974;2023-05-24T05:42:56;17.85;;;3.83;;
52106;SDS011;38105;52.968;5.974;2023-05-24T05:45:22;18.75;;;4.38;;
52106;SDS011;38105;52.968;5.974;2023-05-24T05:47:48;20.23;;;4.72;;
52106;SDS011;38105;52.968;5.974;2023-05-24T05:50:14;22.30;;;4.72;;
52106;SDS011;38105;52.968;5.974;2023-05-24T05:52:39;25.58;;;4.90;;
52106;SDS011;38105;52.968;5.974;2023-05-24T05:55:05;21.10;;;5.10;;
52106;SDS011;38105;52.968;5.974;2023-05-24T05:57:31;19.92;;;4.75;;
52106;SDS011;38105;52.968;5.974;2023-05-24T05:59:57;26.98;;;5.40;;
52106;SDS011;38105;52.968;5.974;2023-05-24T06:02:22;25.48;;;5.63;;
52106;SDS011;38105;52.968;5.974;2023-05-24T06:04:48;24.13;;;5.75;;
52106;SDS011;38105;52.968;5.974;2023-05-24T06:07:14;24.40;;;5.05;;
52106;SDS011;38105;52.968;5.974;2023-05-24T06:09:39;27.02;;;4.78;;
52106;SDS011;38105;52.968;5.974;2023-05-24T06:12:05;21.38;;;4.65;;
52106;SDS011;38105;52.968;5.974;2023-05-24T06:14:31;24.85;;;4.85;;
52106;SDS011;38105;52.968;5.974;2023-05-24T06:16:58;29.83;;;4.47;;
52106;SDS011;38105;52.968;5.974;2023-05-24T06:19:24;22.95;;;4.43;;
52106;SDS011;38105;52.968;5.974;2023-05-24T06:21:51;28.48;;;5.13;;
52106;SDS011;38105;52.968;5.974;2023-05-24T06:24:17;23.15;;;4.90;;
52106;SDS011;38105;52.968;5.974;2023-05-24T06:26:47;21.25;;;5.25;;
52106;SDS011;38105;52.968;5.974;2023-05-24T06:29:14;25.48;;;5.05;;
52106;SDS011;38105;52.968;5.974;2023-05-24T06:31:40;25.98;;;5.50;;
52106;SDS011;38105;52.968;5.974;2023-05-24T06:34:05;20.88;;;4.68;;
52106;SDS011;38105;52.968;5.974;2023-05-24T06:36:31;20.15;;;4.68;;
52106;SDS011;38105;52.968;5.974;2023-05-24T06:39:05;27.08;;;5.22;;
52106;SDS011;38105;52.968;5.974;2023-05-24T06:41:30;25.25;;;5.35;;
52106;SDS011;38105;52.968;5.974;2023-05-24T06:43:56;29.90;;;4.80;;
52106;SDS011;38105;52.968;5.974;2023-05-24T06:46:22;21.77;;;4.88;;
52106;SDS011;38105;52.968;5.974;2023-05-24T06:48:47;18.98;;;4.22;;
52106;SDS011;38105;52.968;5.974;2023-05-24T06:51:13;21.65;;;4.97;;
52106;SDS011;38105;52.968;5.974;2023-05-24T06:53:38;20.90;;;4.50;;
52106;SDS011;38105;52.968;5.974;2023-05-24T06:56:04;22.63;;;5.07;;
52106;SDS011;38105;52.968;5.974;2023-05-24T06:58:30;24.67;;;4.65;;
52106;SDS011;38105;52.968;5.974;2023-05-24T07:00:56;25.52;;;4.93;;
52106;SDS011;38105;52.968;5.974;2023-05-24T07:03:21;21.85;;;4.97;;
52106;SDS011;38105;52.968;5.974;2023-05-24T07:05:47;19.40;;;4.15;;
52106;SDS011;38105;52.968;5.974;2023-05-24T07:08:13;20.15;;;4.45;;
52106;SDS011;38105;52.968;5.974;2023-05-24T07:10:38;17.92;;;4.07;;
52106;SDS011;38105;52.968;5.974;2023-05-24T07:13:04;23.92;;;4.45;;
52106;SDS011;38105;52.968;5.974;2023-05-24T07:15:30;24.33;;;5.78;;
52106;SDS011;38105;52.968;5.974;2023-05-24T07:17:56;19.42;;;3.83;;
52106;SDS011;38105;52.968;5.974;2023-05-24T07:20:22;24.45;;;4.47;;
52106;SDS011;38105;52.968;5.974;2023-05-24T07:22:49;17.70;;;4.05;;
52106;SDS011;38105;52.968;5.974;2023-05-24T07:25:14;24.70;;;5.53;;
52106;SDS011;38105;52.968;5.974;2023-05-24T07:27:40;20.13;;;4.38;;
52106;SDS011;38105;52.968;5.974;2023-05-24T07:30:06;22.92;;;4.38;;
52106;SDS011;38105;52.968;5.974;2023-05-24T07:32:32;18.80;;;3.90;;
52106;SDS011;38105;52.968;5.974;2023-05-24T07:34:58;19.65;;;4.05;;
52106;SDS011;38105;52.968;5.974;2023-05-24T07:37:23;16.60;;;4.25;;
52106;SDS011;38105;52.968;5.974;2023-05-24T07:39:49;21.52;;;4.10;;
52106;SDS011;38105;52.968;5.974;2023-05-24T07:42:16;14.63;;;3.85;;
52106;SDS011;38105;52.968;5.974;2023-05-24T07:44:41;20.63;;;4.45;;
52106;SDS011;38105;52.968;5.974;2023-05-24T07:47:07;20.50;;;4.72;;
52106;SDS011;38105;52.968;5.974;2023-05-24T07:49:32;19.33;;;3.95;;
52106;SDS011;38105;52.968;5.974;2023-05-24T07:51:58;18.92;;;3.97;;
52106;SDS011;38105;52.968;5.974;2023-05-24T07:54:24;15.88;;;3.88;;
52106;SDS011;38105;52.968;5.974;2023-05-24T07:56:50;16.65;;;3.75;;
52106;SDS011;38105;52.968;5.974;2023-05-24T07:59:16;18.58;;;4.03;;
52106;SDS011;38105;52.968;5.974;2023-05-24T08:01:43;17.00;;;4.00;;
52106;SDS011;38105;52.968;5.974;2023-05-24T08:04:08;21.27;;;3.90;;
52106;SDS011;38105;52.968;5.974;2023-05-24T08:06:34;16.13;;;3.97;;
52106;SDS011;38105;52.968;5.974;2023-05-24T08:09:00;22.17;;;3.63;;
52106;SDS011;38105;52.968;5.974;2023-05-24T08:11:27;15.45;;;3.67;;
52106;SDS011;38105;52.968;5.974;2023-05-24T08:13:53;14.73;;;3.40;;
52106;SDS011;38105;52.968;5.974;2023-05-24T08:16:19;13.00;;;3.00;;
52106;SDS011;38105;52.968;5.974;2023-05-24T08:18:45;12.00;;;3.40;;
52106;SDS011;38105;52.968;5.974;2023-05-24T08:21:10;14.18;;;3.28;;
52106;SDS011;38105;52.968;5.974;2023-05-24T08:23:36;16.40;;;3.78;;
52106;SDS011;38105;52.968;5.974;2023-05-24T08:26:02;15.75;;;3.85;;
52106;SDS011;38105;52.968;5.974;2023-05-24T08:28:28;13.25;;;3.35;;
52106;SDS011;38105;52.968;5.974;2023-05-24T08:30:54;16.88;;;3.33;;
52106;SDS011;38105;52.968;5.974;2023-05-24T08:33:19;12.75;;;3.40;;
52106;SDS011;38105;52.968;5.974;2023-05-24T08:35:47;20.60;;;4.30;;
52106;SDS011;38105;52.968;5.974;2023-05-24T08:38:16;17.25;;;3.78;;
52106;SDS011;38105;52.968;5.974;2023-05-24T08:40:42;15.52;;;3.40;;
52106;SDS011;38105;52.968;5.974;2023-05-24T08:43:08;17.85;;;3.60;;
52106;SDS011;38105;52.968;5.974;2023-05-24T08:45:36;15.50;;;3.60;;
52106;SDS011;38105;52.968;5.974;2023-05-24T08:48:06;14.35;;;3.65;;
52106;SDS011;38105;52.968;5.974;2023-05-24T08:50:33;14.60;;;3.38;;
52106;SDS011;38105;52.968;5.974;2023-05-24T08:52:59;19.60;;;4.05;;
52106;SDS011;38105;52.968;5.974;2023-05-24T08:55:29;21.83;;;4.15;;
52106;SDS011;38105;52.968;5.974;2023-05-24T08:57:55;15.55;;;3.28;;
52106;SDS011;38105;52.968;5.974;2023-05-24T09:00:22;13.25;;;2.80;;
52106;SDS011;38105;52.968;5.974;2023-05-24T09:02:48;16.33;;;3.88;;
52106;SDS011;38105;52.968;5.974;2023-05-24T09:05:14;13.90;;;3.50;;
52106;SDS011;38105;52.968;5.974;2023-05-24T09:07:45;11.18;;;3.38;;
52106;SDS011;38105;52.968;5.974;2023-05-24T09:10:13;17.40;;;3.50;;
52106;SDS011;38105;52.968;5.974;2023-05-24T09:12:43;14.75;;;3.60;;
52106;SDS011;38105;52.968;5.974;2023-05-24T09:15:09;17.75;;;3.60;;
52106;SDS011;38105;52.968;5.974;2023-05-24T09:17:36;20.08;;;4.03;;
52106;SDS011;38105;52.968;5.974;2023-05-24T09:20:05;17.10;;;3.53;;
52106;SDS011;38105;52.968;5.974;2023-05-24T09:22:34;14.05;;;3.50;;
52106;SDS011;38105;52.968;5.974;2023-05-24T09:25:02;14.68;;;3.63;;
52106;SDS011;38105;52.968;5.974;2023-05-24T09:27:30;15.35;;;3.63;;
52106;SDS011;38105;52.968;5.974;2023-05-24T09:29:58;17.08;;;3.65;;
52106;SDS011;38105;52.968;5.974;2023-05-24T09:32:24;12.52;;;3.15;;
52106;SDS011;38105;52.968;5.974;2023-05-24T09:34:53;14.60;;;3.78;;
52106;SDS011;38105;52.968;5.974;2023-05-24T09:37:20;17.95;;;4.03;;
52106;SDS011;38105;52.968;5.974;2023-05-24T09:39:48;13.98;;;3.40;;
52106;SDS011;38105;52.968;5.974;2023-05-24T09:42:18;16.13;;;3.63;;
52106;SDS011;38105;52.968;5.974;2023-05-24T09:45:06;14.20;;;3.60;;
52106;SDS011;38105;52.968;5.974;2023-05-24T09:47:41;14.40;;;2.95;;
52106;SDS011;38105;52.968;5.974;2023-05-24T09:50:12;16.15;;;3.63;;
52106;SDS011;38105;52.968;5.974;2023-05-24T09:52:39;15.88;;;3.42;;
52106;SDS011;38105;52.968;5.974;2023-05-24T09:55:15;17.42;;;4.15;;
52106;SDS011;38105;52.968;5.974;2023-05-24T09:57:43;14.48;;;3.55;;
52106;SDS011;38105;52.968;5.974;2023-05-24T10:00:09;18.33;;;3.78;;
52106;SDS011;38105;52.968;5.974;2023-05-24T10:02:42;17.08;;;3.72;;
52106;SDS011;38105;52.968;5.974;2023-05-24T10:05:09;18.02;;;3.42;;
52106;SDS011;38105;52.968;5.974;2023-05-24T10:07:36;17.30;;;4.18;;
52106;SDS011;38105;52.968;5.974;2023-05-24T10:10:03;11.95;;;3.63;;
52106;SDS011;38105;52.968;5.974;2023-05-24T10:12:30;11.68;;;3.22;;
52106;SDS011;38105;52.968;5.974;2023-05-24T10:14:58;16.60;;;3.03;;
52106;SDS011;38105;52.968;5.974;2023-05-24T10:17:25;17.20;;;3.85;;
52106;SDS011;38105;52.968;5.974;2023-05-24T10:19:52;11.15;;;3.47;;
52106;SDS011;38105;52.968;5.974;2023-05-24T10:22:17;12.05;;;3.40;;
52106;SDS011;38105;52.968;5.974;2023-05-24T10:24:49;13.57;;;3.70;;
52106;SDS011;38105;52.968;5.974;2023-05-24T10:27:22;15.18;;;3.88;;
52106;SDS011;38105;52.968;5.974;2023-05-24T10:32:30;11.52;;;3.20;;
52106;SDS011;38105;52.968;5.974;2023-05-24T10:34:59;13.00;;;3.42;;
52106;SDS011;38105;52.968;5.974;2023-05-24T10:37:25;12.98;;;2.80;;
52106;SDS011;38105;52.968;5.974;2023-05-24T10:39:51;14.57;;;3.72;;
52106;SDS011;38105;52.968;5.974;2023-05-24T10:42:17;12.55;;;3.40;;
52106;SDS011;38105;52.968;5.974;2023-05-24T10:44:43;15.23;;;3.60;;
52106;SDS011;38105;52.968;5.974;2023-05-24T10:47:10;14.75;;;3.65;;
52106;SDS011;38105;52.968;5.974;2023-05-24T10:49:50;12.88;;;3.03;;
52106;SDS011;38105;52.968;5.974;2023-05-24T10:52:18;11.45;;;3.08;;
52106;SDS011;38105;52.968;5.974;2023-05-24T10:55:00;12.13;;;3.30;;
52106;SDS011;38105;52.968;5.974;2023-05-24T10:57:31;10.50;;;3.30;;
52106;SDS011;38105;52.968;5.974;2023-05-24T11:00:15;15.13;;;3.67;;
52106;SDS011;38105;52.968;5.974;2023-05-24T11:05:33;10.45;;;3.33;;
52106;SDS011;38105;52.968;5.974;2023-05-24T11:08:00;12.65;;;3.03;;
52106;SDS011;38105;52.968;5.974;2023-05-24T11:10:31;17.83;;;3.72;;
52106;SDS011;38105;52.968;5.974;2023-05-24T11:13:00;12.70;;;3.40;;
52106;SDS011;38105;52.968;5.974;2023-05-24T11:15:26;9.52;;;2.90;;
52106;SDS011;38105;52.968;5.974;2023-05-24T11:20:38;12.75;;;3.25;;
52106;SDS011;38105;52.968;5.974;2023-05-24T11:23:08;10.35;;;2.83;;
52106;SDS011;38105;52.968;5.974;2023-05-24T11:25:34;15.10;;;4.13;;
52106;SDS011;38105;52.968;5.974;2023-05-24T11:28:05;21.10;;;5.00;;
52106;SDS011;38105;52.968;5.974;2023-05-24T11:30:37;12.30;;;3.40;;
52106;SDS011;38105;52.968;5.974;2023-05-24T11:33:16;16.83;;;5.15;;
52106;SDS011;38105;52.968;5.974;2023-05-24T11:35:44;13.10;;;3.25;;
52106;SDS011;38105;52.968;5.974;2023-05-24T11:38:11;22.33;;;5.95;;
52106;SDS011;38105;52.968;5.974;2023-05-24T11:40:38;19.05;;;5.00;;
52106;SDS011;38105;52.968;5.974;2023-05-24T11:43:09;9.80;;;3.10;;
52106;SDS011;38105;52.968;5.974;2023-05-24T11:45:36;11.00;;;2.97;;
52106;SDS011;38105;52.968;5.974;2023-05-24T11:48:04;11.50;;;3.60;;
52106;SDS011;38105;52.968;5.974;2023-05-24T11:50:30;23.02;;;5.30;;
52106;SDS011;38105;52.968;5.974;2023-05-24T11:53:02;13.45;;;5.05;;
52106;SDS011;38105;52.968;5.974;2023-05-24T11:55:28;10.77;;;2.75;;
52106;SDS011;38105;52.968;5.974;2023-05-24T11:57:56;8.35;;;3.10;;
52106;SDS011;38105;52.968;5.974;2023-05-24T12:00:26;10.75;;;3.17;;
52106;SDS011;38105;52.968;5.974;2023-05-24T12:02:55;12.25;;;3.00;;
52106;SDS011;38105;52.968;5.974;2023-05-24T12:05:21;11.93;;;2.95;;
52106;SDS011;38105;52.968;5.974;2023-05-24T12:07:47;13.63;;;3.15;;
52106;SDS011;38105;52.968;5.974;2023-05-24T12:10:23;11.63;;;2.92;;
52106;SDS011;38105;52.968;5.974;2023-05-24T12:12:49;11.23;;;2.78;;
52106;SDS011;38105;52.968;5.974;2023-05-24T12:15:14;11.32;;;3.33;;
52106;SDS011;38105;52.968;5.974;2023-05-24T12:17:42;10.02;;;3.08;;
52106;SDS011;38105;52.968;5.974;2023-05-24T12:20:08;12.50;;;3.58;;
52106;SDS011;38105;52.968;5.974;2023-05-24T12:22:36;11.82;;;2.42;;
52106;SDS011;38105;52.968;5.974;2023-05-24T12:25:02;10.80;;;3.20;;
52106;SDS011;38105;52.968;5.974;2023-05-24T12:27:27;7.60;;;2.88;;
52106;SDS011;38105;52.968;5.974;2023-05-24T12:29:55;10.88;;;2.50;;
52106;SDS011;38105;52.968;5.974;2023-05-24T12:32:30;14.30;;;3.10;;
52106;SDS011;38105;52.968;5.974;2023-05-24T12:34:55;9.93;;;2.78;;
52106;SDS011;38105;52.968;5.974;2023-05-24T12:37:21;10.32;;;2.97;;
52106;SDS011;38105;52.968;5.974;2023-05-24T12:39:47;7.80;;;2.50;;
52106;SDS011;38105;52.968;5.974;2023-05-24T12:42:12;14.70;;;3.10;;
52106;SDS011;38105;52.968;5.974;2023-05-24T12:44:38;12.98;;;3.42;;
52106;SDS011;38105;52.968;5.974;2023-05-24T12:47:05;8.65;;;3.28;;
52106;SDS011;38105;52.968;5.974;2023-05-24T12:49:31;11.40;;;3.00;;
52106;SDS011;38105;52.968;5.974;2023-05-24T12:51:58;10.07;;;2.72;;
52106;SDS011;38105;52.968;5.974;2023-05-24T12:54:26;12.43;;;3.00;;
52106;SDS011;38105;52.968;5.974;2023-05-24T12:56:52;9.65;;;3.05;;
52106;SDS011;38105;52.968;5.974;2023-05-24T12:59:19;13.18;;;3.42;;
52106;SDS011;38105;52.968;5.974;2023-05-24T13:01:45;10.77;;;2.97;;
52106;SDS011;38105;52.968;5.974;2023-05-24T13:04:17;8.18;;;2.70;;
52106;SDS011;38105;52.968;5.974;2023-05-24T13:06:45;10.52;;;2.83;;
52106;SDS011;38105;52.968;5.974;2023-05-24T13:09:12;10.43;;;2.55;;
52106;SDS011;38105;52.968;5.974;2023-05-24T13:11:38;6.50;;;2.05;;
52106;SDS011;38105;52.968;5.974;2023-05-24T13:14:04;7.60;;;2.35;;
52106;SDS011;38105;52.968;5.974;2023-05-24T13:16:29;9.80;;;2.25;;
52106;SDS011;38105;52.968;5.974;2023-05-24T13:18:55;5.57;;;1.83;;
52106;SDS011;38105;52.968;5.974;2023-05-24T13:21:21;6.78;;;1.80;;
52106;SDS011;38105;52.968;5.974;2023-05-24T13:23:47;8.93;;;2.05;;
52106;SDS011;38105;52.968;5.974;2023-05-24T13:26:12;6.63;;;2.30;;
52106;SDS011;38105;52.968;5.974;2023-05-24T13:28:38;6.95;;;2.40;;
52106;SDS011;38105;52.968;5.974;2023-05-24T13:31:04;10.13;;;2.53;;
52106;SDS011;38105;52.968;5.974;2023-05-24T13:33:30;7.63;;;2.20;;
52106;SDS011;38105;52.968;5.974;2023-05-24T13:35:56;6.70;;;2.22;;
52106;SDS011;38105;52.968;5.974;2023-05-24T13:38:22;11.40;;;2.50;;
52106;SDS011;38105;52.968;5.974;2023-05-24T13:40:48;6.57;;;2.30;;
52106;SDS011;38105;52.968;5.974;2023-05-24T13:43:14;7.88;;;2.42;;
52106;SDS011;38105;52.968;5.974;2023-05-24T13:45:39;8.65;;;2.90;;
52106;SDS011;38105;52.968;5.974;2023-05-24T13:48:05;6.38;;;2.72;;
52106;SDS011;38105;52.968;5.974;2023-05-24T13:50:32;8.85;;;2.40;;
52106;SDS011;38105;52.968;5.974;2023-05-24T13:52:58;7.50;;;2.42;;
52106;SDS011;38105;52.968;5.974;2023-05-24T13:55:26;8.77;;;2.22;;
52106;SDS011;38105;52.968;5.974;2023-05-24T13:57:53;9.60;;;2.30;;
52106;SDS011;38105;52.968;5.974;2023-05-24T14:00:19;9.07;;;2.50;;
52106;SDS011;38105;52.968;5.974;2023-05-24T14:02:46;9.65;;;2.20;;
52106;SDS011;38105;52.968;5.974;2023-05-24T14:05:12;11.88;;;2.75;;
52106;SDS011;38105;52.968;5.974;2023-05-24T14:07:38;10.15;;;2.55;;
52106;SDS011;38105;52.968;5.974;2023-05-24T14:10:03;14.70;;;2.30;;
52106;SDS011;38105;52.968;5.974;2023-05-24T14:12:31;8.05;;;2.58;;
52106;SDS011;38105;52.968;5.974;2023-05-24T14:14:56;8.50;;;2.75;;
52106;SDS011;38105;52.968;5.974;2023-05-24T14:17:22;9.63;;;2.75;;
52106;SDS011;38105;52.968;5.974;2023-05-24T14:19:48;11.98;;;3.13;;
52106;SDS011;38105;52.968;5.974;2023-05-24T14:22:14;11.82;;;3.00;;
52106;SDS011;38105;52.968;5.974;2023-05-24T14:24:39;8.00;;;2.88;;
52106;SDS011;38105;52.968;5.974;2023-05-24T14:27:05;10.10;;;2.92;;
52106;SDS011;38105;52.968;5.974;2023-05-24T14:29:31;12.07;;;3.13;;
52106;SDS011;38105;52.968;5.974;2023-05-24T14:31:57;10.73;;;2.88;;
52106;SDS011;38105;52.968;5.974;2023-05-24T14:34:22;11.18;;;3.20;;
52106;SDS011;38105;52.968;5.974;2023-05-24T14:36:48;14.60;;;3.80;;
52106;SDS011;38105;52.968;5.974;2023-05-24T14:39:14;14.77;;;3.22;;
52106;SDS011;38105;52.968;5.974;2023-05-24T14:41:40;8.15;;;2.60;;
52106;SDS011;38105;52.968;5.974;2023-05-24T14:44:05;14.15;;;3.58;;
52106;SDS011;38105;52.968;5.974;2023-05-24T14:46:31;13.88;;;3.72;;
52106;SDS011;38105;52.968;5.974;2023-05-24T14:48:57;13.57;;;3.90;;
52106;SDS011;38105;52.968;5.974;2023-05-24T14:51:22;10.30;;;2.97;;
52106;SDS011;38105;52.968;5.974;2023-05-24T14:53:48;11.77;;;3.17;;
52106;SDS011;38105;52.968;5.974;2023-05-24T14:56:14;10.52;;;2.80;;
52106;SDS011;38105;52.968;5.974;2023-05-24T14:58:40;11.25;;;3.17;;
52106;SDS011;38105;52.968;5.974;2023-05-24T15:01:06;13.73;;;2.97;;
52106;SDS011;38105;52.968;5.974;2023-05-24T15:03:32;12.38;;;3.10;;